createdAt,value
2023-12-16T01:04:01.322Z,8.80
2023-12-16T01:06:29.902Z,8.90
2023-12-16T01:08:58.441Z,8.80
2023-12-16T01:11:27.223Z,8.90
2023-12-16T01:13:55.872Z,8.80
2023-12-16T01:16:24.941Z,8.80
2023-12-16T01:18:54.512Z,8.80
2023-12-16T01:21:24.635Z,8.70
2023-12-16T01:23:53.245Z,8.80
2023-12-16T01:26:21.612Z,8.70
2023-12-16T01:28:50.297Z,8.60
2023-12-16T01:31:19.997Z,8.60
2023-12-16T01:33:48.876Z,8.60
2023-12-16T01:36:16.111Z,8.70
2023-12-16T01:38:46.127Z,8.80
2023-12-16T01:41:14.493Z,8.70
2023-12-16T01:43:43.042Z,8.80
2023-12-16T01:46:12.080Z,8.70
2023-12-16T01:48:41.642Z,8.70
2023-12-16T01:51:10.791Z,8.70
2023-12-16T01:53:41.382Z,8.70
2023-12-16T01:56:11.929Z,8.70
2023-12-16T01:58:43.175Z,8.70
2023-12-16T02:01:11.821Z,8.70
2023-12-16T02:03:40.786Z,8.70
2023-12-16T02:06:09.744Z,8.70
2023-12-16T02:08:38.909Z,8.70
2023-12-16T02:11:11.469Z,8.80
2023-12-16T02:13:43.556Z,8.80
2023-12-16T02:16:12.068Z,8.80
2023-12-16T02:18:40.843Z,9.00
2023-12-16T02:21:09.184Z,8.80
2023-12-16T02:23:41.050Z,8.90
2023-12-16T02:26:09.756Z,8.90
2023-12-16T02:28:38.440Z,8.90
2023-12-16T02:31:08.080Z,8.90
2023-12-16T02:33:37.363Z,8.90
2023-12-16T02:36:06.673Z,8.90
2023-12-16T02:38:35.449Z,8.90
2023-12-16T02:41:05.566Z,8.90
2023-12-16T02:43:35.261Z,8.90
2023-12-16T02:46:03.694Z,8.90
2023-12-16T02:48:32.926Z,8.90
2023-12-16T02:51:01.614Z,8.90
2023-12-16T02:53:29.875Z,8.90
2023-12-16T02:55:58.236Z,8.90
2023-12-16T02:58:28.639Z,8.80
2023-12-16T03:00:57.090Z,8.90
2023-12-16T03:03:25.775Z,8.80
2023-12-16T03:05:54.272Z,8.80
2023-12-16T03:08:25.724Z,8.90
2023-12-16T03:10:55.952Z,8.90
2023-12-16T03:13:24.764Z,9.00
2023-12-16T03:15:54.776Z,9.00
2023-12-16T03:18:23.282Z,9.00
2023-12-16T03:20:52.120Z,9.00
2023-12-16T03:23:20.422Z,9.00
2023-12-16T03:25:48.842Z,9.00
2023-12-16T03:28:17.456Z,9.00
2023-12-16T03:30:48.600Z,9.00
2023-12-16T03:33:18.584Z,9.00
2023-12-16T03:35:47.167Z,9.00
2023-12-16T03:38:15.826Z,9.00
2023-12-16T03:40:44.710Z,9.00
2023-12-16T03:43:13.980Z,9.00
2023-12-16T03:45:42.576Z,9.00
2023-12-16T03:48:11.806Z,9.00
2023-12-16T03:50:41.819Z,9.00
2023-12-16T03:53:10.144Z,9.00
2023-12-16T03:55:38.714Z,9.10
2023-12-16T03:58:07.406Z,9.00
2023-12-16T04:00:38.387Z,9.00
2023-12-16T04:03:06.969Z,9.00
2023-12-16T04:05:35.191Z,9.20
2023-12-16T04:08:05.760Z,9.00
2023-12-16T04:10:34.035Z,9.00
2023-12-16T04:13:02.588Z,8.90
2023-12-16T04:15:35.139Z,8.90
2023-12-16T04:18:04.188Z,8.80
2023-12-16T04:20:32.445Z,8.80
2023-12-16T04:23:00.983Z,8.70
2023-12-16T04:25:31.477Z,8.70
2023-12-16T04:28:00.260Z,8.70
2023-12-16T04:30:29.296Z,8.70
2023-12-16T04:32:58.573Z,8.70
2023-12-16T04:35:27.052Z,8.70
2023-12-16T04:37:55.629Z,8.70
2023-12-16T04:40:24.255Z,8.70
2023-12-16T04:42:56.413Z,8.80
2023-12-16T04:45:24.977Z,8.90
2023-12-16T04:47:53.569Z,8.80
2023-12-16T04:50:22.437Z,8.60
2023-12-16T04:52:51.272Z,8.80
2023-12-16T04:55:19.944Z,8.90
2023-12-16T04:57:48.516Z,8.80
2023-12-16T05:00:19.108Z,8.80
2023-12-16T05:02:47.772Z,8.90
2023-12-16T05:05:16.162Z,8.90
2023-12-16T05:07:44.550Z,8.90
2023-12-16T05:10:12.875Z,8.90
2023-12-16T05:12:42.594Z,8.90
2023-12-16T05:15:13.286Z,8.90
2023-12-16T05:17:42.148Z,8.80
2023-12-16T05:20:11.429Z,8.80
2023-12-16T05:22:39.984Z,8.80
2023-12-16T05:25:09.661Z,8.80
2023-12-16T05:27:38.549Z,8.80
2023-12-16T05:30:10.435Z,8.80
2023-12-16T05:32:39.167Z,8.80
2023-12-16T05:35:10.340Z,8.80
2023-12-16T05:37:39.215Z,8.80
2023-12-16T05:40:09.019Z,8.80
2023-12-16T05:42:37.864Z,8.80
2023-12-16T05:45:07.264Z,8.80
2023-12-16T05:47:35.711Z,8.80
2023-12-16T05:50:04.705Z,8.70
2023-12-16T05:52:34.805Z,8.60
2023-12-16T05:55:03.874Z,8.70
2023-12-16T05:57:32.565Z,8.70
2023-12-16T06:00:00.855Z,8.70
2023-12-16T06:02:29.493Z,8.90
2023-12-16T06:04:58.190Z,8.90
2023-12-16T06:07:26.862Z,8.70
2023-12-16T06:09:56.870Z,8.60
2023-12-16T06:12:25.086Z,8.60
2023-12-16T06:14:55.672Z,8.60
2023-12-16T06:17:25.476Z,8.50
2023-12-16T06:19:54.067Z,8.50
2023-12-16T06:22:22.452Z,8.60
2023-12-16T06:24:50.902Z,8.60
2023-12-16T06:27:20.451Z,8.60
2023-12-16T06:29:49.264Z,8.80
2023-12-16T06:32:17.481Z,8.90
2023-12-16T06:34:47.475Z,8.70
2023-12-16T06:37:16.335Z,8.80
2023-12-16T06:39:45.010Z,8.70
2023-12-16T06:42:13.283Z,8.70
2023-12-16T06:44:45.069Z,8.80
2023-12-16T07:29:07.110Z,8.80
2023-12-16T07:31:35.856Z,8.80
2023-12-16T09:58:33.363Z,10.40
2023-12-16T10:15:55.482Z,10.60
2023-12-16T10:18:24.574Z,10.60
2023-12-16T10:23:55.853Z,10.50
2023-12-16T10:26:24.565Z,10.60
2023-12-16T10:28:55.489Z,10.50
2023-12-16T10:31:26.200Z,10.40
2023-12-16T10:33:55.214Z,10.70
2023-12-16T10:36:23.710Z,10.40
2023-12-16T10:38:52.882Z,10.40
2023-12-16T10:41:23.084Z,10.40
2023-12-16T10:43:54.196Z,10.40
2023-12-16T10:46:29.094Z,10.40
2023-12-16T10:49:01.469Z,10.40
2023-12-16T10:51:31.961Z,10.40
2023-12-16T10:54:07.704Z,10.50
2023-12-16T10:56:41.459Z,10.50
2023-12-16T10:59:20.659Z,10.50
2023-12-16T11:01:58.916Z,10.60
2023-12-16T11:04:30.814Z,10.60
2023-12-16T11:07:07.153Z,10.70
2023-12-16T11:09:36.564Z,10.70
2023-12-16T11:12:07.354Z,10.80
2023-12-16T11:14:38.189Z,10.80
2023-12-16T11:17:13.965Z,10.80
2023-12-16T11:19:47.485Z,10.90
2023-12-16T11:22:17.910Z,10.90
2023-12-16T11:24:47.005Z,11.00
2023-12-16T11:27:18.085Z,11.10
2023-12-16T11:29:46.817Z,11.20
2023-12-16T11:32:34.844Z,11.20
2023-12-16T11:35:18.215Z,11.30
2023-12-16T11:37:47.725Z,11.40
2023-12-16T11:40:43.671Z,11.50
2023-12-16T11:43:13.272Z,12.10
2023-12-16T11:45:44.350Z,12.80
2023-12-16T11:48:16.851Z,13.50
2023-12-16T11:50:48.102Z,14.30
2023-12-16T11:53:20.426Z,14.80
2023-12-16T11:55:49.128Z,15.30
2023-12-16T11:58:20.392Z,15.70
2023-12-16T12:00:50.415Z,15.70
2023-12-16T12:07:14.837Z,15.20
2023-12-16T12:42:11.363Z,12.90
2023-12-16T13:38:03.443Z,11.50
2023-12-16T13:40:35.797Z,11.50
2023-12-16T13:43:06.582Z,11.50
2023-12-16T13:45:50.528Z,11.50
2023-12-16T13:48:20.149Z,11.50
2023-12-16T13:50:49.009Z,11.50
2023-12-16T13:53:18.101Z,11.50
2023-12-16T13:55:48.103Z,11.40
2023-12-16T13:58:18.559Z,11.40
2023-12-16T14:00:47.018Z,11.40
2023-12-16T14:03:15.587Z,11.30
2023-12-16T14:05:44.449Z,11.20
2023-12-16T14:08:13.692Z,11.10
2023-12-16T14:10:42.334Z,11.10
2023-12-16T14:13:12.338Z,11.00
2023-12-16T14:15:40.823Z,11.00
2023-12-16T14:18:09.417Z,11.00
2023-12-16T14:20:37.839Z,10.90
2023-12-16T14:23:06.337Z,10.80
2023-12-16T14:25:36.399Z,10.80
2023-12-16T14:28:04.994Z,10.80
2023-12-16T14:30:35.077Z,10.70
2023-12-16T14:33:04.281Z,10.60
2023-12-16T14:35:34.858Z,10.50
2023-12-16T14:38:07.963Z,10.30
2023-12-16T14:40:36.917Z,10.40
2023-12-16T14:47:38.257Z,10.30
2023-12-16T14:50:07.477Z,10.20
2023-12-16T14:52:35.962Z,10.10
2023-12-16T14:55:07.695Z,10.10
2023-12-16T14:57:53.596Z,10.00
2023-12-16T15:00:45.758Z,9.90
2023-12-16T15:04:23.808Z,9.80
2023-12-16T15:07:17.030Z,10.10
2023-12-16T15:09:45.645Z,9.80
2023-12-16T15:12:14.195Z,9.80
2023-12-16T15:14:42.945Z,9.80
2023-12-16T15:17:12.152Z,9.70
2023-12-16T15:19:43.585Z,9.70
2023-12-16T15:22:13.758Z,9.70
2023-12-16T15:24:45.193Z,9.70
2023-12-16T15:27:20.065Z,9.70
2023-12-16T15:29:51.374Z,9.80
2023-12-16T15:32:27.734Z,9.50
2023-12-16T15:35:00.856Z,9.70
2023-12-16T15:37:31.096Z,9.90
2023-12-16T15:40:03.015Z,10.00
2023-12-16T16:32:31.752Z,9.80
2023-12-16T16:40:08.748Z,9.90
2023-12-16T16:56:04.979Z,9.60
2023-12-16T17:06:12.541Z,9.80
2023-12-16T17:08:59.400Z,9.80
2023-12-16T17:11:31.465Z,9.90
2023-12-16T17:14:16.671Z,9.90
2023-12-16T17:16:57.027Z,9.90
2023-12-16T17:19:25.943Z,10.00
2023-12-16T17:21:58.745Z,10.00
2023-12-16T17:24:30.323Z,10.00
2023-12-16T17:27:10.551Z,10.10
2023-12-16T18:50:31.059Z,10.30
2023-12-16T18:52:59.463Z,10.40
2023-12-16T18:55:28.017Z,10.30
2023-12-16T18:57:56.909Z,10.30
2023-12-16T19:00:27.369Z,10.30
2023-12-16T19:02:56.850Z,10.40
2023-12-16T19:05:26.877Z,10.30
2023-12-16T19:07:55.245Z,10.30
2023-12-16T19:10:25.118Z,10.40
2023-12-16T19:12:53.581Z,10.40
2023-12-16T19:15:30.610Z,10.40
2023-12-16T19:34:16.088Z,10.40
2023-12-16T19:36:45.786Z,10.50
2023-12-16T19:49:09.363Z,10.60
2023-12-16T19:51:43.231Z,10.50
2023-12-16T20:29:03.731Z,10.40
2023-12-16T20:31:43.076Z,10.60
2023-12-16T20:47:50.421Z,10.50
2023-12-16T21:15:30.634Z,10.30
2023-12-16T21:21:38.087Z,10.20
2023-12-16T21:24:28.653Z,10.20
2023-12-16T21:27:19.390Z,10.30
2023-12-16T21:30:23.684Z,10.20
2023-12-16T21:33:22.296Z,10.30
2023-12-16T21:36:01.452Z,10.30
2023-12-16T21:38:33.120Z,10.30
2023-12-16T21:41:35.018Z,10.50
2023-12-16T21:44:16.303Z,10.20
2023-12-16T21:46:48.534Z,10.30
2023-12-16T21:49:54.381Z,10.30
2023-12-16T21:52:36.993Z,10.20
2023-12-16T21:55:16.557Z,10.30
2023-12-16T21:57:56.647Z,10.30
2023-12-16T22:00:41.870Z,10.30
2023-12-16T22:03:21.146Z,10.30
2023-12-16T22:05:59.704Z,10.30
2023-12-16T22:08:46.183Z,10.30
2023-12-16T22:11:21.900Z,10.30
2023-12-16T22:14:00.352Z,10.30
2023-12-16T22:16:31.616Z,10.30
2023-12-16T22:19:11.423Z,10.30
2023-12-16T22:21:53.325Z,10.40
2023-12-16T22:24:24.376Z,10.30
2023-12-16T22:26:59.008Z,10.40
2023-12-16T22:29:41.211Z,10.40
2023-12-16T22:32:11.407Z,10.60
2023-12-16T22:34:41.341Z,10.40
2023-12-16T22:37:20.785Z,10.50
2023-12-16T22:39:52.399Z,10.30
2023-12-16T22:42:23.499Z,10.50
2023-12-16T22:44:51.939Z,10.60
2023-12-16T22:47:23.623Z,10.50
2023-12-16T22:49:52.310Z,10.50
2023-12-16T22:52:25.696Z,10.50
2023-12-16T22:54:54.089Z,10.50
2023-12-16T22:57:27.935Z,10.50
2023-12-16T23:00:00.015Z,10.40
2023-12-16T23:02:30.278Z,10.50
2023-12-16T23:05:02.083Z,10.50
2023-12-16T23:07:32.029Z,10.50
2023-12-16T23:10:04.436Z,10.50
2023-12-16T23:12:34.661Z,10.50
2023-12-16T23:15:03.085Z,10.40
2023-12-16T23:17:31.885Z,10.50
2023-12-16T23:20:00.629Z,10.50
2023-12-16T23:22:29.119Z,10.50
2023-12-16T23:24:58.912Z,10.50
2023-12-16T23:27:31.961Z,10.60
2023-12-16T23:30:00.661Z,10.50
2023-12-16T23:32:32.066Z,10.30
2023-12-16T23:35:00.758Z,10.50
2023-12-16T23:37:29.075Z,10.50
2023-12-16T23:52:44.417Z,10.30
2023-12-16T23:55:12.790Z,10.40
2023-12-16T23:57:43.419Z,10.30
